sensor_id;sensor_type;location;lat;lon;timestamp;P1;durP1;ratioP1;P2;durP2;ratioP2
19257;SDS011;9763;48.780;9.212;2023-02-01T00:00:12;2.50;;;2.30;;
19257;SDS011;9763;48.780;9.212;2023-02-01T00:03:36;2.43;;;2.10;;
19257;SDS011;9763;48.780;9.212;2023-02-01T00:07:01;2.20;;;1.90;;
19257;SDS011;9763;48.780;9.212;2023-02-01T00:10:25;2.50;;;2.30;;
19257;SDS011;9763;48.780;9.212;2023-02-01T00:13:48;1.70;;;1.60;;
19257;SDS011;9763;48.780;9.212;2023-02-01T00:17:12;3.10;;;1.90;;
19257;SDS011;9763;48.780;9.212;2023-02-01T00:20:36;1.90;;;1.70;;
19257;SDS011;9763;48.780;9.212;2023-02-01T00:24:01;1.90;;;1.70;;
19257;SDS011;9763;48.780;9.212;2023-02-01T00:27:25;2.00;;;1.80;;
19257;SDS011;9763;48.780;9.212;2023-02-01T00:30:55;2.03;;;1.70;;
19257;SDS011;9763;48.780;9.212;2023-02-01T00:34:20;1.80;;;1.60;;
19257;SDS011;9763;48.780;9.212;2023-02-01T00:37:44;4.20;;;2.20;;
19257;SDS011;9763;48.780;9.212;2023-02-01T00:41:10;2.00;;;1.60;;
19257;SDS011;9763;48.780;9.212;2023-02-01T00:44:36;1.77;;;1.60;;
19257;SDS011;9763;48.780;9.212;2023-02-01T00:47:59;2.03;;;1.70;;
19257;SDS011;9763;48.780;9.212;2023-02-01T00:51:24;2.47;;;1.87;;
19257;SDS011;9763;48.780;9.212;2023-02-01T00:54:49;2.00;;;1.73;;
19257;SDS011;9763;48.780;9.212;2023-02-01T00:58:15;1.67;;;1.57;;
19257;SDS011;9763;48.780;9.212;2023-02-01T01:01:38;1.80;;;1.30;;
19257;SDS011;9763;48.780;9.212;2023-02-01T01:05:03;3.40;;;1.87;;
19257;SDS011;9763;48.780;9.212;2023-02-01T01:08:27;1.77;;;1.27;;
19257;SDS011;9763;48.780;9.212;2023-02-01T01:11:51;1.93;;;1.50;;
19257;SDS011;9763;48.780;9.212;2023-02-01T01:15:16;2.80;;;1.50;;
19257;SDS011;9763;48.780;9.212;2023-02-01T01:18:40;1.50;;;1.40;;
19257;SDS011;9763;48.780;9.212;2023-02-01T01:22:04;1.60;;;1.40;;
19257;SDS011;9763;48.780;9.212;2023-02-01T01:25:28;1.57;;;1.40;;
19257;SDS011;9763;48.780;9.212;2023-02-01T01:28:52;1.70;;;1.43;;
19257;SDS011;9763;48.780;9.212;2023-02-01T01:32:18;1.57;;;1.33;;
19257;SDS011;9763;48.780;9.212;2023-02-01T01:35:42;1.73;;;1.40;;
19257;SDS011;9763;48.780;9.212;2023-02-01T01:39:06;1.50;;;1.30;;
19257;SDS011;9763;48.780;9.212;2023-02-01T01:42:30;2.03;;;1.60;;
19257;SDS011;9763;48.780;9.212;2023-02-01T01:45:59;1.20;;;0.93;;
19257;SDS011;9763;48.780;9.212;2023-02-01T01:49:24;2.07;;;1.20;;
19257;SDS011;9763;48.780;9.212;2023-02-01T01:52:49;1.43;;;1.33;;
19257;SDS011;9763;48.780;9.212;2023-02-01T01:56:17;1.40;;;1.13;;
19257;SDS011;9763;48.780;9.212;2023-02-01T01:59:42;1.50;;;1.00;;
19257;SDS011;9763;48.780;9.212;2023-02-01T02:03:14;1.80;;;1.43;;
19257;SDS011;9763;48.780;9.212;2023-02-01T02:06:43;1.37;;;1.10;;
19257;SDS011;9763;48.780;9.212;2023-02-01T02:10:13;1.50;;;1.30;;
19257;SDS011;9763;48.780;9.212;2023-02-01T02:13:38;1.40;;;1.20;;
19257;SDS011;9763;48.780;9.212;2023-02-01T02:17:07;3.30;;;1.40;;
19257;SDS011;9763;48.780;9.212;2023-02-01T02:20:58;1.73;;;1.50;;
19257;SDS011;9763;48.780;9.212;2023-02-01T02:24:46;1.57;;;1.30;;
19257;SDS011;9763;48.780;9.212;2023-02-01T02:36:38;1.70;;;1.60;;
19257;SDS011;9763;48.780;9.212;2023-02-01T02:40:18;1.40;;;1.30;;
19257;SDS011;9763;48.780;9.212;2023-02-01T02:43:56;1.47;;;1.30;;
19257;SDS011;9763;48.780;9.212;2023-02-01T02:47:44;1.53;;;1.27;;
19257;SDS011;9763;48.780;9.212;2023-02-01T02:51:19;1.30;;;1.10;;
19257;SDS011;9763;48.780;9.212;2023-02-01T02:55:10;2.13;;;1.50;;
19257;SDS011;9763;48.780;9.212;2023-02-01T02:58:34;1.70;;;1.50;;
19257;SDS011;9763;48.780;9.212;2023-02-01T03:02:15;1.53;;;1.20;;
19257;SDS011;9763;48.780;9.212;2023-02-01T03:05:59;1.60;;;1.50;;
19257;SDS011;9763;48.780;9.212;2023-02-01T03:09:26;1.60;;;1.40;;
19257;SDS011;9763;48.780;9.212;2023-02-01T03:12:53;1.60;;;1.33;;
19257;SDS011;9763;48.780;9.212;2023-02-01T03:16:26;3.03;;;1.40;;
19257;SDS011;9763;48.780;9.212;2023-02-01T03:19:56;1.73;;;1.63;;
19257;SDS011;9763;48.780;9.212;2023-02-01T03:23:25;1.70;;;1.50;;
19257;SDS011;9763;48.780;9.212;2023-02-01T03:26:55;1.40;;;1.20;;
19257;SDS011;9763;48.780;9.212;2023-02-01T03:30:25;1.70;;;1.13;;
19257;SDS011;9763;48.780;9.212;2023-02-01T03:33:52;1.80;;;1.33;;
19257;SDS011;9763;48.780;9.212;2023-02-01T03:37:17;1.43;;;1.20;;
19257;SDS011;9763;48.780;9.212;2023-02-01T03:40:46;1.90;;;1.80;;
19257;SDS011;9763;48.780;9.212;2023-02-01T03:44:18;2.57;;;1.43;;
19257;SDS011;9763;48.780;9.212;2023-02-01T03:47:47;1.97;;;1.50;;
19257;SDS011;9763;48.780;9.212;2023-02-01T03:51:15;1.73;;;1.47;;
19257;SDS011;9763;48.780;9.212;2023-02-01T03:54:41;1.70;;;1.30;;
19257;SDS011;9763;48.780;9.212;2023-02-01T03:58:07;2.10;;;1.43;;
19257;SDS011;9763;48.780;9.212;2023-02-01T04:01:36;1.87;;;1.57;;
19257;SDS011;9763;48.780;9.212;2023-02-01T04:05:01;1.80;;;1.30;;
19257;SDS011;9763;48.780;9.212;2023-02-01T04:08:25;1.30;;;1.17;;
19257;SDS011;9763;48.780;9.212;2023-02-01T04:11:49;1.50;;;1.30;;
19257;SDS011;9763;48.780;9.212;2023-02-01T04:15:13;1.63;;;1.30;;
19257;SDS011;9763;48.780;9.212;2023-02-01T04:18:38;1.33;;;1.20;;
19257;SDS011;9763;48.780;9.212;2023-02-01T04:22:02;1.37;;;1.27;;
19257;SDS011;9763;48.780;9.212;2023-02-01T04:25:26;1.40;;;1.17;;
19257;SDS011;9763;48.780;9.212;2023-02-01T04:28:49;1.43;;;1.33;;
19257;SDS011;9763;48.780;9.212;2023-02-01T04:32:14;1.67;;;1.53;;
19257;SDS011;9763;48.780;9.212;2023-02-01T04:35:39;1.90;;;1.60;;
19257;SDS011;9763;48.780;9.212;2023-02-01T04:39:03;2.70;;;1.60;;
19257;SDS011;9763;48.780;9.212;2023-02-01T04:42:27;1.83;;;1.73;;
19257;SDS011;9763;48.780;9.212;2023-02-01T04:45:51;1.70;;;1.60;;
19257;SDS011;9763;48.780;9.212;2023-02-01T04:49:15;1.50;;;1.37;;
19257;SDS011;9763;48.780;9.212;2023-02-01T04:52:41;1.57;;;1.40;;
19257;SDS011;9763;48.780;9.212;2023-02-01T04:56:07;1.63;;;1.43;;
19257;SDS011;9763;48.780;9.212;2023-02-01T04:59:30;1.23;;;1.03;;
19257;SDS011;9763;48.780;9.212;2023-02-01T05:02:55;1.90;;;1.30;;
19257;SDS011;9763;48.780;9.212;2023-02-01T05:06:19;1.57;;;1.47;;
19257;SDS011;9763;48.780;9.212;2023-02-01T05:09:44;1.50;;;1.40;;
19257;SDS011;9763;48.780;9.212;2023-02-01T05:13:08;1.80;;;1.30;;
19257;SDS011;9763;48.780;9.212;2023-02-01T05:16:50;2.57;;;1.37;;
19257;SDS011;9763;48.780;9.212;2023-02-01T05:20:14;1.40;;;1.23;;
19257;SDS011;9763;48.780;9.212;2023-02-01T05:23:38;1.37;;;1.10;;
19257;SDS011;9763;48.780;9.212;2023-02-01T05:27:17;1.50;;;1.20;;
19257;SDS011;9763;48.780;9.212;2023-02-01T05:30:41;1.60;;;1.10;;
19257;SDS011;9763;48.780;9.212;2023-02-01T05:34:04;1.30;;;1.10;;
19257;SDS011;9763;48.780;9.212;2023-02-01T05:37:28;5.20;;;1.13;;
19257;SDS011;9763;48.780;9.212;2023-02-01T05:40:52;1.30;;;1.20;;
19257;SDS011;9763;48.780;9.212;2023-02-01T05:44:17;1.20;;;1.00;;
19257;SDS011;9763;48.780;9.212;2023-02-01T05:47:41;1.30;;;1.20;;
19257;SDS011;9763;48.780;9.212;2023-02-01T05:51:05;1.50;;;1.27;;
19257;SDS011;9763;48.780;9.212;2023-02-01T05:54:29;1.60;;;1.30;;
19257;SDS011;9763;48.780;9.212;2023-02-01T05:57:53;1.50;;;1.13;;
19257;SDS011;9763;48.780;9.212;2023-02-01T06:01:18;1.30;;;1.00;;
19257;SDS011;9763;48.780;9.212;2023-02-01T06:04:42;1.47;;;1.37;;
19257;SDS011;9763;48.780;9.212;2023-02-01T06:08:06;1.60;;;1.33;;
19257;SDS011;9763;48.780;9.212;2023-02-01T06:11:30;1.80;;;1.37;;
19257;SDS011;9763;48.780;9.212;2023-02-01T06:14:54;1.30;;;1.17;;
19257;SDS011;9763;48.780;9.212;2023-02-01T06:18:19;1.60;;;1.20;;
19257;SDS011;9763;48.780;9.212;2023-02-01T06:21:43;1.30;;;1.03;;
19257;SDS011;9763;48.780;9.212;2023-02-01T06:25:08;1.40;;;1.10;;
19257;SDS011;9763;48.780;9.212;2023-02-01T06:28:33;1.40;;;1.13;;
19257;SDS011;9763;48.780;9.212;2023-02-01T06:31:57;2.10;;;1.53;;
19257;SDS011;9763;48.780;9.212;2023-02-01T06:35:22;1.90;;;1.63;;
19257;SDS011;9763;48.780;9.212;2023-02-01T06:38:47;1.50;;;1.20;;
19257;SDS011;9763;48.780;9.212;2023-02-01T06:42:11;1.40;;;1.20;;
19257;SDS011;9763;48.780;9.212;2023-02-01T06:45:35;2.10;;;1.40;;
19257;SDS011;9763;48.780;9.212;2023-02-01T06:48:58;2.37;;;1.53;;
19257;SDS011;9763;48.780;9.212;2023-02-01T06:52:23;1.90;;;1.60;;
19257;SDS011;9763;48.780;9.212;2023-02-01T06:55:53;1.43;;;1.33;;
19257;SDS011;9763;48.780;9.212;2023-02-01T06:59:18;2.37;;;1.77;;
19257;SDS011;9763;48.780;9.212;2023-02-01T07:02:42;1.57;;;1.47;;
19257;SDS011;9763;48.780;9.212;2023-02-01T07:06:06;2.77;;;1.60;;
19257;SDS011;9763;48.780;9.212;2023-02-01T07:09:32;1.70;;;1.60;;
19257;SDS011;9763;48.780;9.212;2023-02-01T07:12:56;2.50;;;1.70;;
19257;SDS011;9763;48.780;9.212;2023-02-01T07:16:21;1.57;;;1.40;;
19257;SDS011;9763;48.780;9.212;2023-02-01T07:19:45;2.20;;;1.97;;
19257;SDS011;9763;48.780;9.212;2023-02-01T07:23:09;1.60;;;1.50;;
19257;SDS011;9763;48.780;9.212;2023-02-01T07:26:34;2.07;;;1.47;;
19257;SDS011;9763;48.780;9.212;2023-02-01T07:29:58;2.80;;;1.50;;
19257;SDS011;9763;48.780;9.212;2023-02-01T07:33:23;3.20;;;1.37;;
19257;SDS011;9763;48.780;9.212;2023-02-01T07:36:48;1.60;;;1.50;;
19257;SDS011;9763;48.780;9.212;2023-02-01T07:40:12;1.70;;;1.30;;
19257;SDS011;9763;48.780;9.212;2023-02-01T07:43:37;1.63;;;1.50;;
19257;SDS011;9763;48.780;9.212;2023-02-01T07:47:01;1.90;;;1.50;;
19257;SDS011;9763;48.780;9.212;2023-02-01T07:50:25;2.10;;;1.67;;
19257;SDS011;9763;48.780;9.212;2023-02-01T07:53:49;2.37;;;1.40;;
19257;SDS011;9763;48.780;9.212;2023-02-01T07:57:16;4.57;;;1.53;;
19257;SDS011;9763;48.780;9.212;2023-02-01T08:00:41;1.87;;;1.60;;
19257;SDS011;9763;48.780;9.212;2023-02-01T08:04:23;6.33;;;2.27;;
19257;SDS011;9763;48.780;9.212;2023-02-01T08:07:48;2.80;;;1.73;;
19257;SDS011;9763;48.780;9.212;2023-02-01T08:11:12;2.67;;;1.60;;
19257;SDS011;9763;48.780;9.212;2023-02-01T08:14:37;5.00;;;1.63;;
19257;SDS011;9763;48.780;9.212;2023-02-01T08:18:03;1.93;;;1.30;;
19257;SDS011;9763;48.780;9.212;2023-02-01T08:21:28;2.63;;;1.67;;
19257;SDS011;9763;48.780;9.212;2023-02-01T08:24:58;1.67;;;1.50;;
19257;SDS011;9763;48.780;9.212;2023-02-01T08:28:23;1.57;;;1.27;;
19257;SDS011;9763;48.780;9.212;2023-02-01T08:31:46;2.60;;;1.90;;
19257;SDS011;9763;48.780;9.212;2023-02-01T08:35:12;2.07;;;1.43;;
19257;SDS011;9763;48.780;9.212;2023-02-01T08:38:36;2.00;;;1.27;;
19257;SDS011;9763;48.780;9.212;2023-02-01T08:42:02;2.53;;;1.57;;
19257;SDS011;9763;48.780;9.212;2023-02-01T08:45:43;2.27;;;1.70;;
19257;SDS011;9763;48.780;9.212;2023-02-01T08:49:08;2.77;;;1.70;;
19257;SDS011;9763;48.780;9.212;2023-02-01T08:52:33;2.40;;;1.70;;
19257;SDS011;9763;48.780;9.212;2023-02-01T08:55:58;4.10;;;1.60;;
19257;SDS011;9763;48.780;9.212;2023-02-01T08:59:23;3.30;;;1.67;;
19257;SDS011;9763;48.780;9.212;2023-02-01T09:02:50;1.60;;;1.50;;
19257;SDS011;9763;48.780;9.212;2023-02-01T09:06:14;4.13;;;2.00;;
19257;SDS011;9763;48.780;9.212;2023-02-01T09:09:40;2.27;;;1.50;;
19257;SDS011;9763;48.780;9.212;2023-02-01T09:13:04;4.00;;;1.60;;
19257;SDS011;9763;48.780;9.212;2023-02-01T09:16:29;4.10;;;1.80;;
19257;SDS011;9763;48.780;9.212;2023-02-01T09:19:53;5.30;;;1.77;;
19257;SDS011;9763;48.780;9.212;2023-02-01T09:23:17;2.17;;;1.90;;
19257;SDS011;9763;48.780;9.212;2023-02-01T09:26:43;2.73;;;1.60;;
19257;SDS011;9763;48.780;9.212;2023-02-01T09:30:09;4.70;;;1.73;;
19257;SDS011;9763;48.780;9.212;2023-02-01T09:33:33;2.67;;;2.00;;
19257;SDS011;9763;48.780;9.212;2023-02-01T09:36:57;4.23;;;2.23;;
19257;SDS011;9763;48.780;9.212;2023-02-01T09:40:21;4.53;;;2.43;;
19257;SDS011;9763;48.780;9.212;2023-02-01T09:43:48;8.13;;;3.03;;
19257;SDS011;9763;48.780;9.212;2023-02-01T09:47:28;5.00;;;2.40;;
19257;SDS011;9763;48.780;9.212;2023-02-01T09:50:55;5.97;;;2.40;;
19257;SDS011;9763;48.780;9.212;2023-02-01T09:54:22;8.10;;;2.50;;
19257;SDS011;9763;48.780;9.212;2023-02-01T09:57:50;8.30;;;2.90;;
19257;SDS011;9763;48.780;9.212;2023-02-01T10:01:22;3.97;;;2.20;;
19257;SDS011;9763;48.780;9.212;2023-02-01T10:04:48;4.50;;;2.00;;
19257;SDS011;9763;48.780;9.212;2023-02-01T10:08:13;10.77;;;2.50;;
19257;SDS011;9763;48.780;9.212;2023-02-01T10:11:53;9.80;;;2.70;;
19257;SDS011;9763;48.780;9.212;2023-02-01T10:15:44;5.67;;;2.10;;
19257;SDS011;9763;48.780;9.212;2023-02-01T10:19:26;6.63;;;2.50;;
19257;SDS011;9763;48.780;9.212;2023-02-01T10:23:04;6.00;;;2.00;;
19257;SDS011;9763;48.780;9.212;2023-02-01T10:26:56;3.40;;;1.87;;
19257;SDS011;9763;48.780;9.212;2023-02-01T10:30:25;10.60;;;2.17;;
19257;SDS011;9763;48.780;9.212;2023-02-01T10:33:56;5.20;;;1.90;;
19257;SDS011;9763;48.780;9.212;2023-02-01T10:37:26;4.00;;;1.97;;
19257;SDS011;9763;48.780;9.212;2023-02-01T10:40:53;5.80;;;2.87;;
19257;SDS011;9763;48.780;9.212;2023-02-01T10:44:25;4.80;;;2.43;;
19257;SDS011;9763;48.780;9.212;2023-02-01T10:47:52;5.73;;;1.90;;
19257;SDS011;9763;48.780;9.212;2023-02-01T10:51:19;3.70;;;2.10;;
19257;SDS011;9763;48.780;9.212;2023-02-01T10:54:50;4.77;;;2.10;;
19257;SDS011;9763;48.780;9.212;2023-02-01T10:58:16;8.73;;;2.40;;
19257;SDS011;9763;48.780;9.212;2023-02-01T11:01:42;5.43;;;2.40;;
19257;SDS011;9763;48.780;9.212;2023-02-01T11:05:09;8.30;;;2.30;;
19257;SDS011;9763;48.780;9.212;2023-02-01T11:08:34;6.07;;;2.40;;
19257;SDS011;9763;48.780;9.212;2023-02-01T11:12:22;6.10;;;2.40;;
19257;SDS011;9763;48.780;9.212;2023-02-01T11:15:54;9.77;;;2.30;;
19257;SDS011;9763;48.780;9.212;2023-02-01T11:19:19;5.17;;;2.03;;
19257;SDS011;9763;48.780;9.212;2023-02-01T11:22:46;6.93;;;2.23;;
19257;SDS011;9763;48.780;9.212;2023-02-01T11:26:19;7.63;;;1.93;;
19257;SDS011;9763;48.780;9.212;2023-02-01T11:29:48;4.80;;;1.80;;
19257;SDS011;9763;48.780;9.212;2023-02-01T11:33:15;6.07;;;2.30;;
19257;SDS011;9763;48.780;9.212;2023-02-01T11:36:45;8.83;;;2.43;;
19257;SDS011;9763;48.780;9.212;2023-02-01T11:40:22;5.10;;;2.30;;
19257;SDS011;9763;48.780;9.212;2023-02-01T11:43:53;6.77;;;2.53;;
19257;SDS011;9763;48.780;9.212;2023-02-01T11:47:22;11.67;;;2.90;;
19257;SDS011;9763;48.780;9.212;2023-02-01T11:50:49;8.43;;;2.90;;
19257;SDS011;9763;48.780;9.212;2023-02-01T11:54:31;4.43;;;2.10;;
19257;SDS011;9763;48.780;9.212;2023-02-01T11:58:13;6.00;;;1.80;;
19257;SDS011;9763;48.780;9.212;2023-02-01T12:01:52;6.17;;;2.20;;
19257;SDS011;9763;48.780;9.212;2023-02-01T12:05:36;4.43;;;1.87;;
19257;SDS011;9763;48.780;9.212;2023-02-01T12:09:22;5.00;;;2.10;;
19257;SDS011;9763;48.780;9.212;2023-02-01T12:13:00;9.33;;;2.20;;
19257;SDS011;9763;48.780;9.212;2023-02-01T12:16:37;5.83;;;2.00;;
19257;SDS011;9763;48.780;9.212;2023-02-01T12:20:15;10.17;;;2.43;;
19257;SDS011;9763;48.780;9.212;2023-02-01T12:24:11;5.07;;;1.80;;
19257;SDS011;9763;48.780;9.212;2023-02-01T12:28:05;7.20;;;1.77;;
19257;SDS011;9763;48.780;9.212;2023-02-01T12:32:00;10.57;;;2.00;;
19257;SDS011;9763;48.780;9.212;2023-02-01T12:35:44;3.70;;;1.63;;
19257;SDS011;9763;48.780;9.212;2023-02-01T12:39:24;11.50;;;2.00;;
19257;SDS011;9763;48.780;9.212;2023-02-01T12:42:56;4.00;;;2.00;;
19257;SDS011;9763;48.780;9.212;2023-02-01T12:46:26;7.33;;;2.40;;
19257;SDS011;9763;48.780;9.212;2023-02-01T12:49:55;7.50;;;1.90;;
19257;SDS011;9763;48.780;9.212;2023-02-01T12:53:27;5.37;;;1.70;;
19257;SDS011;9763;48.780;9.212;2023-02-01T12:56:58;2.93;;;1.73;;
19257;SDS011;9763;48.780;9.212;2023-02-01T13:00:30;5.83;;;2.23;;
19257;SDS011;9763;48.780;9.212;2023-02-01T13:04:00;4.17;;;1.40;;
19257;SDS011;9763;48.780;9.212;2023-02-01T13:07:34;3.73;;;1.63;;
19257;SDS011;9763;48.780;9.212;2023-02-01T13:11:06;5.83;;;2.50;;
19257;SDS011;9763;48.780;9.212;2023-02-01T13:14:38;2.43;;;1.60;;
19257;SDS011;9763;48.780;9.212;2023-02-01T13:18:11;3.70;;;1.53;;
19257;SDS011;9763;48.780;9.212;2023-02-01T13:21:41;5.60;;;1.60;;
19257;SDS011;9763;48.780;9.212;2023-02-01T13:25:11;5.07;;;1.87;;
19257;SDS011;9763;48.780;9.212;2023-02-01T13:28:40;6.30;;;2.30;;
19257;SDS011;9763;48.780;9.212;2023-02-01T13:32:16;5.03;;;2.23;;
19257;SDS011;9763;48.780;9.212;2023-02-01T13:36:26;1.70;;;1.43;;
19257;SDS011;9763;48.780;9.212;2023-02-01T13:40:26;5.10;;;1.90;;
19257;SDS011;9763;48.780;9.212;2023-02-01T13:43:59;6.40;;;1.70;;
19257;SDS011;9763;48.780;9.212;2023-02-01T13:47:29;3.63;;;1.70;;
19257;SDS011;9763;48.780;9.212;2023-02-01T13:50:57;4.90;;;1.77;;
19257;SDS011;9763;48.780;9.212;2023-02-01T13:54:26;4.70;;;1.73;;
19257;SDS011;9763;48.780;9.212;2023-02-01T13:57:58;7.27;;;1.90;;
19257;SDS011;9763;48.780;9.212;2023-02-01T14:01:40;3.10;;;1.47;;
19257;SDS011;9763;48.780;9.212;2023-02-01T14:05:06;3.97;;;1.73;;
19257;SDS011;9763;48.780;9.212;2023-02-01T14:08:36;6.07;;;2.10;;
19257;SDS011;9763;48.780;9.212;2023-02-01T14:16:13;8.33;;;1.80;;
19257;SDS011;9763;48.780;9.212;2023-02-01T14:19:39;7.07;;;2.03;;
19257;SDS011;9763;48.780;9.212;2023-02-01T14:23:04;4.03;;;1.40;;
19257;SDS011;9763;48.780;9.212;2023-02-01T14:26:43;4.30;;;1.40;;
19257;SDS011;9763;48.780;9.212;2023-02-01T14:30:11;3.80;;;2.43;;
19257;SDS011;9763;48.780;9.212;2023-02-01T14:33:40;5.93;;;1.83;;
19257;SDS011;9763;48.780;9.212;2023-02-01T14:37:06;3.83;;;1.30;;
19257;SDS011;9763;48.780;9.212;2023-02-01T14:40:32;5.30;;;1.83;;
19257;SDS011;9763;48.780;9.212;2023-02-01T14:44:13;3.73;;;1.33;;
19257;SDS011;9763;48.780;9.212;2023-02-01T14:47:49;4.43;;;1.80;;
19257;SDS011;9763;48.780;9.212;2023-02-01T14:51:14;5.50;;;2.07;;
19257;SDS011;9763;48.780;9.212;2023-02-01T14:54:41;4.87;;;2.10;;
19257;SDS011;9763;48.780;9.212;2023-02-01T14:58:18;6.83;;;2.93;;
19257;SDS011;9763;48.780;9.212;2023-02-01T15:01:49;3.93;;;1.90;;
19257;SDS011;9763;48.780;9.212;2023-02-01T15:05:24;5.63;;;2.20;;
19257;SDS011;9763;48.780;9.212;2023-02-01T15:08:53;6.77;;;2.17;;
19257;SDS011;9763;48.780;9.212;2023-02-01T15:12:23;6.00;;;2.30;;
19257;SDS011;9763;48.780;9.212;2023-02-01T15:16:10;4.33;;;2.10;;
19257;SDS011;9763;48.780;9.212;2023-02-01T15:19:36;4.00;;;2.10;;
19257;SDS011;9763;48.780;9.212;2023-02-01T15:23:00;15.93;;;2.70;;
19257;SDS011;9763;48.780;9.212;2023-02-01T15:26:27;11.03;;;2.40;;
19257;SDS011;9763;48.780;9.212;2023-02-01T15:29:53;4.13;;;1.77;;
19257;SDS011;9763;48.780;9.212;2023-02-01T15:33:18;8.20;;;2.20;;
19257;SDS011;9763;48.780;9.212;2023-02-01T15:36:42;4.20;;;1.93;;
19257;SDS011;9763;48.780;9.212;2023-02-01T15:40:23;5.40;;;1.80;;
19257;SDS011;9763;48.780;9.212;2023-02-01T15:43:49;6.10;;;2.10;;
19257;SDS011;9763;48.780;9.212;2023-02-01T15:47:27;4.83;;;1.80;;
19257;SDS011;9763;48.780;9.212;2023-02-01T15:50:55;3.10;;;1.70;;
19257;SDS011;9763;48.780;9.212;2023-02-01T15:54:19;3.43;;;1.80;;
19257;SDS011;9763;48.780;9.212;2023-02-01T15:57:47;5.47;;;2.43;;
19257;SDS011;9763;48.780;9.212;2023-02-01T16:01:12;3.20;;;1.50;;
19257;SDS011;9763;48.780;9.212;2023-02-01T16:04:45;4.43;;;1.60;;
19257;SDS011;9763;48.780;9.212;2023-02-01T16:08:15;3.40;;;1.60;;
19257;SDS011;9763;48.780;9.212;2023-02-01T16:11:54;3.17;;;1.40;;
19257;SDS011;9763;48.780;9.212;2023-02-01T16:15:19;3.83;;;1.80;;
19257;SDS011;9763;48.780;9.212;2023-02-01T16:18:44;4.53;;;1.70;;
19257;SDS011;9763;48.780;9.212;2023-02-01T16:22:08;6.23;;;1.97;;
19257;SDS011;9763;48.780;9.212;2023-02-01T16:25:33;4.70;;;1.90;;
19257;SDS011;9763;48.780;9.212;2023-02-01T16:28:57;6.07;;;2.37;;
19257;SDS011;9763;48.780;9.212;2023-02-01T16:32:23;2.70;;;1.73;;
19257;SDS011;9763;48.780;9.212;2023-02-01T16:35:48;8.23;;;2.47;;
19257;SDS011;9763;48.780;9.212;2023-02-01T16:39:13;2.90;;;1.87;;
19257;SDS011;9763;48.780;9.212;2023-02-01T16:42:38;4.07;;;1.80;;
19257;SDS011;9763;48.780;9.212;2023-02-01T16:46:03;3.97;;;2.13;;
19257;SDS011;9763;48.780;9.212;2023-02-01T16:49:29;3.53;;;1.80;;
19257;SDS011;9763;48.780;9.212;2023-02-01T16:52:53;5.40;;;2.13;;
19257;SDS011;9763;48.780;9.212;2023-02-01T16:56:17;3.40;;;2.33;;
19257;SDS011;9763;48.780;9.212;2023-02-01T16:59:45;3.70;;;1.80;;
19257;SDS011;9763;48.780;9.212;2023-02-01T17:03:09;4.20;;;2.20;;
19257;SDS011;9763;48.780;9.212;2023-02-01T17:06:38;6.67;;;1.90;;
19257;SDS011;9763;48.780;9.212;2023-02-01T17:10:03;3.43;;;1.77;;
19257;SDS011;9763;48.780;9.212;2023-02-01T17:13:28;3.13;;;1.63;;
19257;SDS011;9763;48.780;9.212;2023-02-01T17:16:53;3.93;;;1.70;;
19257;SDS011;9763;48.780;9.212;2023-02-01T17:20:19;3.10;;;1.77;;
19257;SDS011;9763;48.780;9.212;2023-02-01T17:23:45;7.43;;;2.20;;
19257;SDS011;9763;48.780;9.212;2023-02-01T17:27:09;3.37;;;2.40;;
19257;SDS011;9763;48.780;9.212;2023-02-01T17:30:33;2.73;;;1.70;;
19257;SDS011;9763;48.780;9.212;2023-02-01T17:33:58;2.33;;;1.87;;
19257;SDS011;9763;48.780;9.212;2023-02-01T17:37:24;7.17;;;1.50;;
19257;SDS011;9763;48.780;9.212;2023-02-01T17:40:49;2.57;;;1.83;;
19257;SDS011;9763;48.780;9.212;2023-02-01T17:44:14;5.60;;;1.87;;
19257;SDS011;9763;48.780;9.212;2023-02-01T17:47:38;5.40;;;1.53;;
19257;SDS011;9763;48.780;9.212;2023-02-01T17:51:03;4.80;;;1.47;;
19257;SDS011;9763;48.780;9.212;2023-02-01T17:54:34;4.80;;;1.67;;
19257;SDS011;9763;48.780;9.212;2023-02-01T17:57:59;6.23;;;2.17;;
19257;SDS011;9763;48.780;9.212;2023-02-01T18:01:23;5.63;;;1.97;;
19257;SDS011;9763;48.780;9.212;2023-02-01T18:04:48;5.60;;;2.07;;
19257;SDS011;9763;48.780;9.212;2023-02-01T18:08:14;6.60;;;1.90;;
19257;SDS011;9763;48.780;9.212;2023-02-01T18:11:38;3.73;;;1.70;;
19257;SDS011;9763;48.780;9.212;2023-02-01T18:15:08;5.07;;;1.87;;
19257;SDS011;9763;48.780;9.212;2023-02-01T18:18:39;3.50;;;1.50;;
19257;SDS011;9763;48.780;9.212;2023-02-01T18:22:03;5.33;;;2.00;;
19257;SDS011;9763;48.780;9.212;2023-02-01T18:25:29;5.60;;;2.10;;
19257;SDS011;9763;48.780;9.212;2023-02-01T18:28:57;3.33;;;1.70;;
19257;SDS011;9763;48.780;9.212;2023-02-01T18:32:22;4.97;;;2.30;;
19257;SDS011;9763;48.780;9.212;2023-02-01T18:35:46;6.40;;;2.40;;
19257;SDS011;9763;48.780;9.212;2023-02-01T18:39:10;5.80;;;2.40;;
19257;SDS011;9763;48.780;9.212;2023-02-01T18:42:35;10.57;;;2.37;;
19257;SDS011;9763;48.780;9.212;2023-02-01T18:45:59;4.37;;;2.00;;
19257;SDS011;9763;48.780;9.212;2023-02-01T18:49:23;6.37;;;2.30;;
19257;SDS011;9763;48.780;9.212;2023-02-01T18:52:46;4.80;;;2.40;;
19257;SDS011;9763;48.780;9.212;2023-02-01T18:56:10;2.13;;;1.60;;
19257;SDS011;9763;48.780;9.212;2023-02-01T18:59:36;6.03;;;2.20;;
19257;SDS011;9763;48.780;9.212;2023-02-01T19:03:00;3.40;;;1.60;;
19257;SDS011;9763;48.780;9.212;2023-02-01T19:06:24;7.03;;;2.20;;
19257;SDS011;9763;48.780;9.212;2023-02-01T19:09:48;4.87;;;2.00;;
19257;SDS011;9763;48.780;9.212;2023-02-01T19:13:12;4.30;;;1.73;;
19257;SDS011;9763;48.780;9.212;2023-02-01T19:16:37;6.60;;;2.43;;
19257;SDS011;9763;48.780;9.212;2023-02-01T19:20:01;5.20;;;2.67;;
19257;SDS011;9763;48.780;9.212;2023-02-01T19:23:25;5.37;;;1.90;;
19257;SDS011;9763;48.780;9.212;2023-02-01T19:26:49;6.87;;;1.80;;
19257;SDS011;9763;48.780;9.212;2023-02-01T19:30:13;7.23;;;1.80;;
19257;SDS011;9763;48.780;9.212;2023-02-01T19:33:39;6.70;;;2.10;;
19257;SDS011;9763;48.780;9.212;2023-02-01T19:37:03;3.83;;;1.70;;
19257;SDS011;9763;48.780;9.212;2023-02-01T19:40:28;3.73;;;1.57;;
19257;SDS011;9763;48.780;9.212;2023-02-01T19:43:52;6.83;;;2.00;;
19257;SDS011;9763;48.780;9.212;2023-02-01T19:47:16;4.23;;;1.63;;
19257;SDS011;9763;48.780;9.212;2023-02-01T19:50:41;3.30;;;1.90;;
19257;SDS011;9763;48.780;9.212;2023-02-01T19:54:06;8.10;;;2.10;;
19257;SDS011;9763;48.780;9.212;2023-02-01T19:57:30;2.70;;;1.50;;
19257;SDS011;9763;48.780;9.212;2023-02-01T20:00:55;3.40;;;2.00;;
19257;SDS011;9763;48.780;9.212;2023-02-01T20:04:21;11.10;;;2.50;;
19257;SDS011;9763;48.780;9.212;2023-02-01T20:07:46;7.80;;;2.43;;
19257;SDS011;9763;48.780;9.212;2023-02-01T20:11:10;5.17;;;2.43;;
19257;SDS011;9763;48.780;9.212;2023-02-01T20:14:33;6.20;;;2.30;;
19257;SDS011;9763;48.780;9.212;2023-02-01T20:17:57;3.03;;;1.87;;
19257;SDS011;9763;48.780;9.212;2023-02-01T20:21:21;8.17;;;2.07;;
19257;SDS011;9763;48.780;9.212;2023-02-01T20:24:47;4.40;;;1.70;;
19257;SDS011;9763;48.780;9.212;2023-02-01T20:28:10;6.13;;;2.40;;
19257;SDS011;9763;48.780;9.212;2023-02-01T20:31:34;9.10;;;2.60;;
19257;SDS011;9763;48.780;9.212;2023-02-01T20:34:59;4.60;;;1.80;;
19257;SDS011;9763;48.780;9.212;2023-02-01T20:38:22;3.90;;;1.80;;
19257;SDS011;9763;48.780;9.212;2023-02-01T20:41:48;4.10;;;1.87;;
19257;SDS011;9763;48.780;9.212;2023-02-01T20:45:12;4.00;;;1.90;;
19257;SDS011;9763;48.780;9.212;2023-02-01T20:48:36;6.90;;;1.70;;
19257;SDS011;9763;48.780;9.212;2023-02-01T20:51:59;6.63;;;1.80;;
19257;SDS011;9763;48.780;9.212;2023-02-01T20:55:23;6.47;;;1.97;;
19257;SDS011;9763;48.780;9.212;2023-02-01T20:58:49;4.90;;;2.70;;
19257;SDS011;9763;48.780;9.212;2023-02-01T21:02:13;4.37;;;1.90;;
19257;SDS011;9763;48.780;9.212;2023-02-01T21:05:37;4.60;;;2.00;;
19257;SDS011;9763;48.780;9.212;2023-02-01T21:09:04;6.30;;;1.80;;
19257;SDS011;9763;48.780;9.212;2023-02-01T21:12:28;4.70;;;2.00;;
19257;SDS011;9763;48.780;9.212;2023-02-01T21:15:54;6.20;;;2.10;;
19257;SDS011;9763;48.780;9.212;2023-02-01T21:19:17;8.50;;;2.13;;
19257;SDS011;9763;48.780;9.212;2023-02-01T21:22:42;5.27;;;2.00;;